Time;durP1;ratioP1;P1;durP2;ratioP2;P2;SDS_P1;SDS_P2;PMS_P1;PMS_P2;Temp;Humidity;BMP_temperature;BMP_pressure;BME280_temperature;BME280_humidity;BME280_pressure;Samples;Min_cycle;Max_cycle;Signal;HPM_P1;HPM_P2
2022/01/19 00:00:31;;;;;;;96.17;39.30;;;;;;;;;;785303;177;918276;-67
2022/01/19 00:02:57;;;;;;;74.53;37.05;;;;;;;;;;778365;177;919244;-68
2022/01/19 00:05:23;;;;;;;63.93;34.63;;;;;;;;;;779961;177;919314;-67
2022/01/19 00:07:49;;;;;;;75.50;36.17;;;;;;;;;;787014;177;1013559;-67
2022/01/19 00:10:19;;;;;;;96.63;43.30;;;;;;;;;;781321;178;912516;-67
2022/01/19 00:12:43;;;;;;;73.13;38.40;;;;;;;;;;785989;176;911677;-67
2022/01/19 00:15:07;;;;;;;93.50;45.23;;;;;;;;;;773806;181;918781;-67
2022/01/19 00:17:34;;;;;;;88.87;42.60;;;;;;;;;;786305;177;920893;-67
2022/01/19 00:20:00;;;;;;;78.20;38.87;;;;;;;;;;779185;176;918590;-69
2022/01/19 00:22:26;;;;;;;96.80;41.07;;;;;;;;;;780834;177;919257;-68
2022/01/19 00:24:52;;;;;;;97.17;40.90;;;;;;;;;;786347;177;918826;-69
2022/01/19 00:27:17;;;;;;;83.60;40.22;;;;;;;;;;779987;177;1020533;-66
2022/01/19 00:29:43;;;;;;;78.33;37.80;;;;;;;;;;783978;178;919524;-66
2022/01/19 00:32:09;;;;;;;79.37;34.70;;;;;;;;;;787872;176;918559;-68
2022/01/19 00:34:35;;;;;;;67.93;35.53;;;;;;;;;;782098;176;918759;-67
2022/01/19 00:37:01;;;;;;;68.37;36.80;;;;;;;;;;783247;177;920678;-66
2022/01/19 00:39:31;;;;;;;65.17;35.57;;;;;;;;;;791253;176;918839;-67
2022/01/19 00:41:55;;;;;;;63.43;35.40;;;;;;;;;;791602;176;917712;-66
2022/01/19 00:44:20;;;;;;;71.47;34.83;;;;;;;;;;782129;177;919514;-68
2022/01/19 00:46:46;;;;;;;63.72;34.70;;;;;;;;;;778664;178;920129;-66
2022/01/19 00:49:12;;;;;;;65.83;32.60;;;;;;;;;;786861;177;918308;-69
2022/01/19 00:51:38;;;;;;;78.43;35.20;;;;;;;;;;780894;176;918625;-65
2022/01/19 00:54:04;;;;;;;78.80;34.70;;;;;;;;;;782229;176;917549;-69
2022/01/19 00:56:29;;;;;;;77.20;37.80;;;;;;;;;;785083;176;918818;-68
2022/01/19 00:58:55;;;;;;;75.47;36.30;;;;;;;;;;779884;176;919618;-67
2022/01/19 01:01:21;;;;;;;62.47;34.70;;;;;;;;;;780409;176;919309;-67
2022/01/19 01:03:47;;;;;;;67.75;32.05;;;;;;;;;;782039;180;919435;-69
2022/01/19 01:06:14;;;;;;;61.43;31.20;;;;;;;;;;778826;177;918339;-66
2022/01/19 01:08:39;;;;;;;69.53;29.17;;;;;;;;;;770091;180;920113;-66
2022/01/19 01:11:05;;;;;;;75.47;32.43;;;;;;;;;;768241;181;917916;-66
2022/01/19 01:15:25;;;;;;;73.53;37.07;;;;;;;;;;786693;177;1024829;-66
2022/01/19 01:16:02;;;;;;;72.37;36.78;;;;;;;;;;780707;176;919151;-66
2022/01/19 01:18:26;;;;;;;76.60;33.20;;;;;;;;;;785594;177;920708;-66
2022/01/19 01:20:52;;;;;;;67.27;35.20;;;;;;;;;;783013;177;918659;-67
2022/01/19 01:23:18;;;;;;;81.73;35.03;;;;;;;;;;780433;177;920622;-69
2022/01/19 01:25:44;;;;;;;75.97;34.50;;;;;;;;;;781589;177;918711;-69
2022/01/19 01:28:10;;;;;;;68.93;32.80;;;;;;;;;;773015;179;919705;-67
2022/01/19 01:30:35;;;;;;;71.13;35.97;;;;;;;;;;787855;176;914456;-68
2022/01/19 01:33:01;;;;;;;73.20;34.70;;;;;;;;;;784997;176;1017149;-68
2022/01/19 01:35:27;;;;;;;69.32;34.65;;;;;;;;;;781437;174;915869;-68
2022/01/19 01:37:53;;;;;;;59.20;32.97;;;;;;;;;;788602;176;917952;-68
2022/01/19 01:40:19;;;;;;;60.90;32.57;;;;;;;;;;778636;176;919581;-68
2022/01/19 01:42:45;;;;;;;77.87;32.13;;;;;;;;;;771036;180;918047;-68
2022/01/19 01:45:13;;;;;;;81.47;34.50;;;;;;;;;;769862;180;919314;-67
2022/01/19 01:47:42;;;;;;;67.28;31.15;;;;;;;;;;751824;184;919415;-68
2022/01/19 01:55:15;;;;;;;81.10;36.20;;;;;;;;;;766930;181;919431;-67
2022/01/19 01:57:40;;;;;;;62.40;32.13;;;;;;;;;;785866;178;919012;-67
2022/01/19 02:00:07;;;;;;;75.07;35.57;;;;;;;;;;777089;179;918906;-67
2022/01/19 02:02:33;;;;;;;69.03;33.70;;;;;;;;;;768612;179;1020414;-66
2022/01/19 02:04:59;;;;;;;78.57;35.60;;;;;;;;;;761708;184;918690;-67
2022/01/19 02:07:32;;;;;;;62.70;34.60;;;;;;;;;;771021;179;918862;-67
2022/01/19 02:09:57;;;;;;;72.03;34.22;;;;;;;;;;762811;180;1020889;-67
2022/01/19 02:22:36;;;;;;;57.83;29.57;;;;;;;;;;749624;184;919871;-68
2022/01/19 02:25:00;;;;;;;59.37;31.17;;;;;;;;;;776771;179;918432;-67
2022/01/19 02:40:11;;;;;;;69.17;33.87;;;;;;;;;;785156;176;919546;-67
2022/01/19 02:42:39;;;;;;;70.35;31.08;;;;;;;;;;782831;177;919607;-67
2022/01/19 02:50:12;;;;;;;100.37;39.67;;;;;;;;;;784096;176;918621;-66
2022/01/19 02:52:37;;;;;;;70.95;34.95;;;;;;;;;;782512;176;920022;-67
2022/01/19 02:55:04;;;;;;;91.03;38.87;;;;;;;;;;783832;176;1021340;-67
2022/01/19 02:57:34;;;;;;;79.20;40.60;;;;;;;;;;780701;176;913235;-66
2022/01/19 03:10:03;;;;;;;67.60;33.97;;;;;;;;;;786226;176;914212;-66
2022/01/19 03:12:29;;;;;;;82.13;37.20;;;;;;;;;;776361;179;913176;-67
2022/01/19 03:14:56;;;;;;;64.43;32.87;;;;;;;;;;775198;176;914573;-67
2022/01/19 03:17:21;;;;;;;98.82;34.20;;;;;;;;;;780566;177;914253;-67
2022/01/19 03:19:47;;;;;;;78.10;38.37;;;;;;;;;;784908;178;933976;-67
2022/01/19 03:22:13;;;;;;;77.23;32.20;;;;;;;;;;780011;177;913721;-67
2022/01/19 03:24:47;;;;;;;72.03;32.10;;;;;;;;;;779352;177;916346;-66
2022/01/19 03:27:05;;;;;;;71.47;30.60;;;;;;;;;;784799;177;913616;-67
2022/01/19 03:29:30;;;;;;;80.47;34.80;;;;;;;;;;785093;176;915078;-67
2022/01/19 03:31:56;;;;;;;86.23;36.77;;;;;;;;;;781358;177;918565;-66
2022/01/19 03:34:22;;;;;;;68.90;31.70;;;;;;;;;;780885;177;920670;-66
2022/01/19 03:36:48;;;;;;;77.53;34.33;;;;;;;;;;773653;180;1020592;-67
2022/01/19 03:39:14;;;;;;;80.20;33.97;;;;;;;;;;752439;184;918963;-66
2022/01/19 03:41:40;;;;;;;70.33;29.87;;;;;;;;;;765927;180;918791;-66
2022/01/19 03:44:06;;;;;;;77.20;31.40;;;;;;;;;;788200;176;916880;-65
2022/01/19 03:46:34;;;;;;;71.83;31.40;;;;;;;;;;779143;177;917282;-65
2022/01/19 03:49:08;;;;;;;74.03;30.17;;;;;;;;;;778907;177;923164;-65
2022/01/19 03:51:24;;;;;;;72.25;30.80;;;;;;;;;;787755;175;919878;-65
2022/01/19 03:53:50;;;;;;;62.80;29.93;;;;;;;;;;778964;176;921516;-65
2022/01/19 03:56:16;;;;;;;64.50;31.70;;;;;;;;;;786992;176;1016308;-65
2022/01/19 03:58:42;;;;;;;71.85;33.05;;;;;;;;;;779290;177;917016;-64
2022/01/19 04:01:08;;;;;;;61.90;27.47;;;;;;;;;;789936;175;915938;-65
2022/01/19 04:03:56;;;;;;;69.43;27.80;;;;;;;;;;786199;176;921829;-65
2022/01/19 04:06:14;;;;;;;65.27;29.10;;;;;;;;;;784564;176;920424;-65
2022/01/19 04:08:27;;;;;;;65.03;29.07;;;;;;;;;;783178;176;885309;-64
2022/01/19 04:10:52;;;;;;;67.53;32.65;;;;;;;;;;779299;177;1019017;-66
2022/01/19 04:13:30;;;;;;;72.23;31.77;;;;;;;;;;779484;177;919258;-65
2022/01/19 04:15:49;;;;;;;60.67;26.13;;;;;;;;;;778964;176;919093;-64
2022/01/19 04:18:15;;;;;;;66.53;31.23;;;;;;;;;;782811;176;919147;-65
2022/01/19 04:20:43;;;;;;;60.63;30.03;;;;;;;;;;781580;177;920137;-65
2022/01/19 04:23:07;;;;;;;67.03;30.17;;;;;;;;;;780687;177;921594;-68
2022/01/19 04:25:33;;;;;;;52.83;26.00;;;;;;;;;;784023;176;918653;-66
2022/01/19 04:27:58;;;;;;;56.17;29.57;;;;;;;;;;778336;177;918471;-65
2022/01/19 04:30:27;;;;;;;70.83;30.33;;;;;;;;;;780617;177;918925;-65
2022/01/19 04:35:24;;;;;;;59.10;28.87;;;;;;;;;;785422;177;914768;-66
2022/01/19 04:38:05;;;;;;;77.07;31.90;;;;;;;;;;782877;175;919087;-65
2022/01/19 04:45:55;;;;;;;67.07;31.97;;;;;;;;;;781900;179;919478;-65
2022/01/19 05:03:38;;;;;;;78.80;32.40;;;;;;;;;;785015;176;1027357;-66
2022/01/19 05:06:02;;;;;;;74.47;31.80;;;;;;;;;;784774;177;617777;-65
2022/01/19 05:13:37;;;;;;;74.43;33.17;;;;;;;;;;767824;180;645107;-64
2022/01/19 05:16:01;;;;;;;61.57;32.20;;;;;;;;;;789566;176;632713;-65
2022/01/19 05:18:27;;;;;;;94.23;33.47;;;;;;;;;;786089;176;623858;-64
2022/01/19 05:20:53;;;;;;;74.63;34.53;;;;;;;;;;785035;177;627869;-65
2022/01/19 05:23:19;;;;;;;79.43;33.50;;;;;;;;;;787852;177;619599;-64
2022/01/19 05:25:45;;;;;;;71.77;30.97;;;;;;;;;;785555;176;868756;-65
2022/01/19 05:28:10;;;;;;;66.65;31.15;;;;;;;;;;777457;178;919640;-64
2022/01/19 05:30:36;;;;;;;59.63;33.13;;;;;;;;;;777970;180;919222;-64
2022/01/19 05:33:02;;;;;;;79.13;34.40;;;;;;;;;;774427;177;918303;-64
2022/01/19 05:35:29;;;;;;;87.80;33.10;;;;;;;;;;771361;177;919519;-64
2022/01/19 05:37:54;;;;;;;87.30;50.57;;;;;;;;;;781042;177;924335;-65
2022/01/19 05:40:20;;;;;;;100.33;40.50;;;;;;;;;;792687;176;818945;-64
2022/01/19 05:42:48;;;;;;;79.37;40.53;;;;;;;;;;784877;176;919623;-64
2022/01/19 05:45:12;;;;;;;90.20;40.67;;;;;;;;;;779936;176;918490;-64
2022/01/19 05:47:38;;;;;;;93.47;40.77;;;;;;;;;;785288;177;615828;-64
2022/01/19 05:50:04;;;;;;;109.90;44.40;;;;;;;;;;779545;177;918328;-64
2022/01/19 05:52:30;;;;;;;111.47;49.77;;;;;;;;;;778053;177;920997;-64
2022/01/19 05:54:56;;;;;;;145.03;56.20;;;;;;;;;;783799;179;918984;-65
2022/01/19 05:57:22;;;;;;;132.77;54.77;;;;;;;;;;780532;177;918381;-65
2022/01/19 05:59:48;;;;;;;98.40;45.63;;;;;;;;;;779850;177;918842;-65
2022/01/19 06:02:13;;;;;;;97.80;44.37;;;;;;;;;;782479;176;626231;-64
2022/01/19 06:04:40;;;;;;;120.87;51.17;;;;;;;;;;791037;176;636805;-66
2022/01/19 06:07:06;;;;;;;116.73;53.60;;;;;;;;;;790490;176;617257;-65
2022/01/19 06:09:35;;;;;;;117.60;52.80;;;;;;;;;;782187;177;631991;-65
2022/01/19 06:12:03;;;;;;;156.37;58.60;;;;;;;;;;784413;177;606008;-64
2022/01/19 06:14:26;;;;;;;120.13;51.70;;;;;;;;;;787306;176;916813;-65
2022/01/19 06:16:52;;;;;;;105.30;49.00;;;;;;;;;;779730;176;921909;-65
2022/01/19 06:19:19;;;;;;;77.87;37.03;;;;;;;;;;788945;176;912174;-64
2022/01/19 06:21:44;;;;;;;92.93;41.23;;;;;;;;;;790530;174;918589;-65
2022/01/19 06:24:10;;;;;;;101.33;46.03;;;;;;;;;;790576;174;919539;-65
2022/01/19 06:26:36;;;;;;;116.47;49.67;;;;;;;;;;781030;176;918686;-65
2022/01/19 06:29:01;;;;;;;91.40;42.50;;;;;;;;;;786179;176;918908;-63
2022/01/19 06:31:27;;;;;;;84.07;38.80;;;;;;;;;;780940;176;917670;-64
2022/01/19 06:33:53;;;;;;;82.50;28.00;;;;;;;;;;785366;176;920039;-65
2022/01/19 06:36:19;;;;;;;61.10;23.60;;;;;;;;;;788465;177;916840;-65
2022/01/19 06:38:45;;;;;;;60.20;26.30;;;;;;;;;;780408;178;920662;-65
2022/01/19 06:41:11;;;;;;;60.60;26.83;;;;;;;;;;776812;179;919337;-64
2022/01/19 06:43:36;;;;;;;53.17;25.53;;;;;;;;;;774081;180;917617;-64
2022/01/19 06:46:02;;;;;;;57.57;25.83;;;;;;;;;;784283;177;918982;-65
2022/01/19 06:48:28;;;;;;;62.90;27.87;;;;;;;;;;776627;178;919106;-64
2022/01/19 06:50:54;;;;;;;52.73;25.83;;;;;;;;;;780885;176;917860;-63
2022/01/19 06:53:20;;;;;;;61.83;26.30;;;;;;;;;;785403;176;1020643;-64
2022/01/19 06:55:46;;;;;;;68.63;27.93;;;;;;;;;;785301;176;918591;-65
2022/01/19 06:58:12;;;;;;;54.80;24.67;;;;;;;;;;780308;176;920228;-65
2022/01/19 07:00:37;;;;;;;58.23;25.77;;;;;;;;;;785841;177;915847;-64
2022/01/19 07:03:03;;;;;;;58.23;25.90;;;;;;;;;;779726;177;916648;-64
2022/01/19 07:05:29;;;;;;;57.23;25.77;;;;;;;;;;772253;176;918487;-63
2022/01/19 07:07:56;;;;;;;55.27;26.90;;;;;;;;;;784934;176;917503;-64
2022/01/19 07:10:21;;;;;;;74.30;26.20;;;;;;;;;;782610;177;919774;-64
2022/01/19 07:12:47;;;;;;;54.80;24.27;;;;;;;;;;785464;176;954089;-64
2022/01/19 07:15:13;;;;;;;49.53;21.10;;;;;;;;;;791861;176;919109;-62
2022/01/19 07:17:38;;;;;;;65.20;23.70;;;;;;;;;;780999;176;915578;-64
2022/01/19 07:20:05;;;;;;;51.63;23.37;;;;;;;;;;776981;176;916231;-64
2022/01/19 07:22:31;;;;;;;56.60;22.47;;;;;;;;;;785426;176;919633;-64
2022/01/19 07:24:58;;;;;;;44.27;20.53;;;;;;;;;;781127;178;918010;-64
2022/01/19 07:27:22;;;;;;;63.80;24.12;;;;;;;;;;782391;176;924470;-63
2022/01/19 07:29:48;;;;;;;54.53;22.53;;;;;;;;;;777469;177;919300;-64
2022/01/19 07:32:14;;;;;;;49.23;22.43;;;;;;;;;;776092;180;918116;-66
2022/01/19 07:34:40;;;;;;;50.00;22.00;;;;;;;;;;794027;174;919111;-64
2022/01/19 07:37:06;;;;;;;60.33;22.80;;;;;;;;;;792670;176;919972;-63
2022/01/19 07:39:31;;;;;;;44.53;21.27;;;;;;;;;;771741;180;919433;-64
2022/01/19 07:41:57;;;;;;;48.60;23.33;;;;;;;;;;777374;177;918901;-63
2022/01/19 07:44:23;;;;;;;51.30;22.67;;;;;;;;;;782455;177;918641;-63
2022/01/19 07:46:51;;;;;;;55.07;22.47;;;;;;;;;;785502;176;1123687;-63
2022/01/19 07:49:15;;;;;;;46.97;22.57;;;;;;;;;;790328;177;919741;-63
2022/01/19 07:51:41;;;;;;;45.83;23.15;;;;;;;;;;782598;176;919563;-63
2022/01/19 07:54:07;;;;;;;57.20;25.00;;;;;;;;;;782560;177;919814;-63
2022/01/19 07:56:32;;;;;;;51.05;22.80;;;;;;;;;;766220;181;919038;-64
2022/01/19 07:58:58;;;;;;;44.10;20.23;;;;;;;;;;779344;176;919421;-63
2022/01/19 08:01:26;;;;;;;45.53;18.93;;;;;;;;;;779444;177;918362;-63
2022/01/19 08:03:50;;;;;;;43.33;17.27;;;;;;;;;;784435;176;919079;-64
2022/01/19 08:06:16;;;;;;;31.83;16.13;;;;;;;;;;781725;176;919226;-63
2022/01/19 08:08:42;;;;;;;39.70;17.90;;;;;;;;;;780613;176;1021758;-63
2022/01/19 08:11:07;;;;;;;33.23;17.97;;;;;;;;;;778727;177;919598;-63
2022/01/19 08:13:33;;;;;;;29.73;16.20;;;;;;;;;;782354;177;918455;-63
2022/01/19 08:15:59;;;;;;;18.43;11.60;;;;;;;;;;780237;177;918960;-63
2022/01/19 08:18:25;;;;;;;23.20;10.27;;;;;;;;;;781163;177;921833;-63
2022/01/19 08:20:51;;;;;;;21.90;10.93;;;;;;;;;;784618;178;919410;-62
2022/01/19 08:23:17;;;;;;;35.67;13.80;;;;;;;;;;781297;176;919499;-63
2022/01/19 08:25:42;;;;;;;28.03;11.90;;;;;;;;;;782404;176;919874;-62
2022/01/19 08:28:08;;;;;;;23.60;11.30;;;;;;;;;;785301;176;1022035;-62
2022/01/19 08:30:34;;;;;;;19.40;10.73;;;;;;;;;;780000;177;918657;-63
2022/01/19 08:33:00;;;;;;;31.87;11.80;;;;;;;;;;784123;176;920087;-63
2022/01/19 08:35:27;;;;;;;22.75;11.93;;;;;;;;;;786367;177;919237;-61
2022/01/19 08:37:53;;;;;;;21.80;11.03;;;;;;;;;;789927;177;616035;-61
2022/01/19 08:40:25;;;;;;;24.17;12.20;;;;;;;;;;777714;177;920035;-62
2022/01/19 08:42:44;;;;;;;14.53;8.87;;;;;;;;;;776701;177;919157;-62
2022/01/19 08:45:10;;;;;;;23.87;10.23;;;;;;;;;;785025;174;919520;-61
2022/01/19 08:47:36;;;;;;;18.67;10.13;;;;;;;;;;781817;176;918990;-61
2022/01/19 08:50:02;;;;;;;15.83;9.50;;;;;;;;;;794283;176;920429;-62
2022/01/19 08:52:28;;;;;;;22.05;8.95;;;;;;;;;;796505;176;915391;-61
2022/01/19 08:54:54;;;;;;;19.33;9.13;;;;;;;;;;784613;176;917691;-62
2022/01/19 08:57:19;;;;;;;12.30;9.50;;;;;;;;;;784868;176;918121;-61
2022/01/19 08:59:45;;;;;;;10.20;7.47;;;;;;;;;;786251;178;918859;-61
2022/01/19 09:02:11;;;;;;;16.70;8.77;;;;;;;;;;776290;178;918943;-61
2022/01/19 09:04:37;;;;;;;16.12;10.23;;;;;;;;;;768256;180;918500;-62
2022/01/19 09:07:03;;;;;;;18.27;10.63;;;;;;;;;;783432;176;1021201;-61
2022/01/19 09:09:29;;;;;;;16.93;7.30;;;;;;;;;;789363;176;919709;-61
2022/01/19 09:11:55;;;;;;;16.43;8.63;;;;;;;;;;780557;177;919594;-61
2022/01/19 09:14:20;;;;;;;15.43;8.90;;;;;;;;;;785315;177;918940;-62
2022/01/19 09:16:49;;;;;;;19.43;9.37;;;;;;;;;;787137;176;918636;-61
2022/01/19 09:19:12;;;;;;;18.67;7.93;;;;;;;;;;784474;177;918649;-62
2022/01/19 09:21:38;;;;;;;15.53;8.10;;;;;;;;;;780968;177;919187;-63
2022/01/19 09:24:04;;;;;;;16.42;6.43;;;;;;;;;;785281;177;919991;-62
2022/01/19 09:26:30;;;;;;;7.15;5.40;;;;;;;;;;778337;177;919652;-62
2022/01/19 09:28:56;;;;;;;11.33;6.63;;;;;;;;;;778388;177;1021172;-62
2022/01/19 09:31:22;;;;;;;16.80;8.57;;;;;;;;;;780402;177;918684;-63
2022/01/19 09:33:55;;;;;;;5.60;3.70;;;;;;;;;;779016;180;918762;-63
2022/01/19 09:36:30;;;;;;;12.93;8.07;;;;;;;;;;778233;177;919363;-63
2022/01/19 09:38:43;;;;;;;15.10;9.07;;;;;;;;;;777447;177;919150;-65
2022/01/19 09:41:11;;;;;;;16.03;8.90;;;;;;;;;;776441;180;918646;-65
2022/01/19 09:43:35;;;;;;;12.77;7.93;;;;;;;;;;759308;181;918676;-65
2022/01/19 09:46:01;;;;;;;8.07;6.10;;;;;;;;;;763892;180;920766;-65
2022/01/19 09:48:26;;;;;;;18.23;8.00;;;;;;;;;;758403;184;918791;-65
2022/01/19 09:50:54;;;;;;;11.53;6.87;;;;;;;;;;791874;175;916200;-65
2022/01/19 09:53:18;;;;;;;13.37;8.60;;;;;;;;;;780859;177;920364;-64
2022/01/19 09:55:44;;;;;;;18.12;7.28;;;;;;;;;;782420;177;915070;-64
2022/01/19 09:58:10;;;;;;;10.17;6.43;;;;;;;;;;788895;176;916321;-65
2022/01/19 10:00:36;;;;;;;14.00;4.63;;;;;;;;;;780860;176;918934;-64
2022/01/19 10:03:07;;;;;;;9.73;5.50;;;;;;;;;;779468;176;919050;-65
2022/01/19 10:05:33;;;;;;;12.50;4.20;;;;;;;;;;786294;177;919122;-64
2022/01/19 10:07:59;;;;;;;21.43;7.63;;;;;;;;;;776926;177;934117;-64
2022/01/19 10:10:25;;;;;;;16.10;7.97;;;;;;;;;;777748;179;920336;-64
2022/01/19 10:17:54;;;;;;;25.60;10.50;;;;;;;;;;782553;176;919138;-62
2022/01/19 10:20:21;;;;;;;15.90;8.57;;;;;;;;;;788442;176;919598;-63
2022/01/19 10:22:47;;;;;;;21.87;10.63;;;;;;;;;;779975;177;919796;-62
2022/01/19 10:25:13;;;;;;;18.60;8.50;;;;;;;;;;784222;179;919569;-62
2022/01/19 10:27:38;;;;;;;19.63;10.20;;;;;;;;;;780800;177;918393;-63
2022/01/19 10:30:13;;;;;;;20.75;10.93;;;;;;;;;;780569;179;919414;-63
2022/01/19 10:32:41;;;;;;;21.77;11.25;;;;;;;;;;790944;176;919639;-62
2022/01/19 10:35:12;;;;;;;20.30;12.37;;;;;;;;;;778549;179;919019;-62
2022/01/19 10:37:38;;;;;;;22.17;10.83;;;;;;;;;;781729;176;919473;-63
2022/01/19 10:40:04;;;;;;;30.07;11.57;;;;;;;;;;781831;177;919037;-63
2022/01/19 10:42:32;;;;;;;20.17;9.03;;;;;;;;;;790249;176;1021219;-63
2022/01/19 10:44:58;;;;;;;29.30;10.10;;;;;;;;;;769919;177;917445;-64
2022/01/19 10:47:29;;;;;;;11.70;7.40;;;;;;;;;;778222;177;916497;-63
2022/01/19 10:49:55;;;;;;;15.32;7.03;;;;;;;;;;779889;177;916714;-64
2022/01/19 10:52:26;;;;;;;19.93;10.57;;;;;;;;;;785623;177;914649;-63
2022/01/19 10:54:52;;;;;;;15.90;9.67;;;;;;;;;;777242;180;919161;-65
2022/01/19 10:57:17;;;;;;;20.67;11.60;;;;;;;;;;778978;176;918767;-65
2022/01/19 10:59:43;;;;;;;42.57;13.03;;;;;;;;;;778226;176;919795;-64
2022/01/19 11:02:12;;;;;;;19.83;9.07;;;;;;;;;;783693;177;919057;-64
2022/01/19 11:04:35;;;;;;;12.43;8.03;;;;;;;;;;778079;177;920288;-64
2022/01/19 11:07:04;;;;;;;16.43;7.03;;;;;;;;;;782808;177;919618;-64
2022/01/19 11:09:30;;;;;;;18.87;10.97;;;;;;;;;;783368;176;919258;-63
2022/01/19 11:11:56;;;;;;;21.43;9.40;;;;;;;;;;780820;176;1021480;-63
2022/01/19 11:14:24;;;;;;;16.53;9.30;;;;;;;;;;779703;176;919345;-62
2022/01/19 11:16:48;;;;;;;13.10;9.17;;;;;;;;;;796664;176;725768;-62
2022/01/19 11:19:14;;;;;;;26.50;11.77;;;;;;;;;;782653;176;635514;-63
2022/01/19 11:21:55;;;;;;;22.17;9.50;;;;;;;;;;784737;176;669353;-62
2022/01/19 11:24:27;;;;;;;11.03;7.63;;;;;;;;;;783289;176;919311;-63
2022/01/19 11:26:53;;;;;;;21.93;7.93;;;;;;;;;;780921;176;923799;-62
2022/01/19 11:29:19;;;;;;;20.83;8.77;;;;;;;;;;784670;176;919435;-63
2022/01/19 11:31:45;;;;;;;17.20;8.63;;;;;;;;;;783816;176;919062;-62
2022/01/19 11:34:10;;;;;;;16.47;8.43;;;;;;;;;;786553;176;920180;-63
2022/01/19 11:36:36;;;;;;;10.43;3.80;;;;;;;;;;788614;176;919449;-63
2022/01/19 11:39:03;;;;;;;15.70;8.07;;;;;;;;;;770438;178;919376;-62
2022/01/19 11:41:34;;;;;;;8.43;5.40;;;;;;;;;;770363;178;918789;-62
2022/01/19 11:43:59;;;;;;;18.47;7.63;;;;;;;;;;765260;180;919148;-62
2022/01/19 11:46:25;;;;;;;10.17;5.00;;;;;;;;;;798119;174;917837;-62
2022/01/19 11:48:51;;;;;;;12.10;6.07;;;;;;;;;;777212;177;919661;-62
2022/01/19 11:51:23;;;;;;;10.97;7.10;;;;;;;;;;777313;177;918718;-62
2022/01/19 11:53:55;;;;;;;15.63;6.60;;;;;;;;;;780143;176;917672;-62
2022/01/19 11:56:20;;;;;;;13.70;5.90;;;;;;;;;;784657;176;950681;-61
2022/01/19 11:58:46;;;;;;;13.30;5.70;;;;;;;;;;781259;176;919042;-62
2022/01/19 12:01:18;;;;;;;13.82;7.50;;;;;;;;;;786942;176;917933;-62
2022/01/19 12:03:44;;;;;;;13.07;6.27;;;;;;;;;;778296;176;918428;-62
2022/01/19 12:06:10;;;;;;;10.17;5.50;;;;;;;;;;788802;177;918972;-62
2022/01/19 12:08:35;;;;;;;12.27;6.43;;;;;;;;;;782557;176;919732;-62
2022/01/19 12:11:17;;;;;;;10.77;6.87;;;;;;;;;;779056;176;919001;-62
2022/01/19 12:16:51;;;;;;;10.83;6.30;;;;;;;;;;785924;176;1021864;-62
2022/01/19 12:19:15;;;;;;;20.50;9.23;;;;;;;;;;773852;179;919200;-61
2022/01/19 12:21:42;;;;;;;9.47;6.30;;;;;;;;;;786514;176;919964;-62
2022/01/19 12:24:27;;;;;;;21.10;8.53;;;;;;;;;;775810;176;918628;-61
2022/01/19 12:26:53;;;;;;;22.90;9.93;;;;;;;;;;789660;176;968637;-62
2022/01/19 12:29:25;;;;;;;9.83;7.00;;;;;;;;;;777306;177;919181;-61
2022/01/19 12:31:51;;;;;;;17.97;9.60;;;;;;;;;;779278;177;919605;-61
2022/01/19 12:34:18;;;;;;;16.23;8.33;;;;;;;;;;785131;177;916690;-62
2022/01/19 12:36:47;;;;;;;43.10;5.50;;;;;;;;;;779870;177;919166;-62
2022/01/19 12:39:17;;;;;;;15.73;8.57;;;;;;;;;;778010;177;919218;-63
2022/01/19 12:41:49;;;;;;;14.75;10.70;;;;;;;;;;777476;176;918738;-61
2022/01/19 12:44:15;;;;;;;11.03;7.80;;;;;;;;;;795378;176;1020496;-62
2022/01/19 12:46:40;;;;;;;16.53;6.33;;;;;;;;;;782209;175;920133;-62
2022/01/19 12:49:21;;;;;;;15.37;7.13;;;;;;;;;;782041;176;919637;-62
2022/01/19 12:51:47;;;;;;;8.97;6.17;;;;;;;;;;789424;175;915312;-62
2022/01/19 12:54:16;;;;;;;15.83;9.10;;;;;;;;;;780991;176;944128;-62
2022/01/19 12:56:39;;;;;;;16.90;8.27;;;;;;;;;;774719;179;947425;-62
2022/01/19 12:59:07;;;;;;;12.80;6.40;;;;;;;;;;783456;175;920871;-62
2022/01/19 13:01:30;;;;;;;19.97;8.10;;;;;;;;;;784835;176;918809;-63
2022/01/19 13:03:56;;;;;;;17.43;8.40;;;;;;;;;;787507;177;883616;-63
2022/01/19 13:06:22;;;;;;;11.03;5.70;;;;;;;;;;776277;176;920350;-62
2022/01/19 13:08:58;;;;;;;20.73;6.33;;;;;;;;;;783616;176;920776;-63
2022/01/19 13:11:18;;;;;;;16.00;7.97;;;;;;;;;;785519;177;909470;-64
2022/01/19 13:13:46;;;;;;;17.17;9.80;;;;;;;;;;784612;176;918173;-63
2022/01/19 13:16:11;;;;;;;17.00;8.73;;;;;;;;;;781623;177;921749;-63
2022/01/19 13:18:38;;;;;;;13.93;8.40;;;;;;;;;;776821;176;916977;-63
2022/01/19 13:21:06;;;;;;;19.83;6.90;;;;;;;;;;783374;176;918983;-63
2022/01/19 13:23:32;;;;;;;12.97;7.67;;;;;;;;;;776377;177;918906;-64
2022/01/19 13:25:57;;;;;;;12.93;6.73;;;;;;;;;;776804;177;947896;-63
2022/01/19 13:28:24;;;;;;;22.20;8.97;;;;;;;;;;786096;176;916532;-63
2022/01/19 13:30:50;;;;;;;21.65;7.90;;;;;;;;;;766484;179;920507;-64
2022/01/19 13:33:16;;;;;;;23.63;10.30;;;;;;;;;;778820;176;919247;-64
2022/01/19 13:35:43;;;;;;;19.13;10.27;;;;;;;;;;780831;176;914248;-60
2022/01/19 13:38:09;;;;;;;16.67;8.27;;;;;;;;;;769891;182;920294;-63
2022/01/19 13:40:34;;;;;;;18.40;11.27;;;;;;;;;;782734;176;963008;-62
2022/01/19 13:43:01;;;;;;;14.23;8.50;;;;;;;;;;781448;177;922366;-63
2022/01/19 13:48:09;;;;;;;13.63;5.50;;;;;;;;;;782580;176;918689;-61
2022/01/19 13:50:29;;;;;;;14.87;7.93;;;;;;;;;;776194;177;916870;-62
2022/01/19 13:52:55;;;;;;;16.55;6.12;;;;;;;;;;785226;177;919941;-61
2022/01/19 13:55:21;;;;;;;6.80;4.60;;;;;;;;;;782832;177;1020204;-63
2022/01/19 13:57:47;;;;;;;18.73;8.90;;;;;;;;;;778172;177;920236;-62
2022/01/19 14:00:13;;;;;;;21.65;10.65;;;;;;;;;;789138;176;915987;-62
2022/01/19 14:02:39;;;;;;;12.77;8.50;;;;;;;;;;788339;176;637184;-63
2022/01/19 14:05:05;;;;;;;15.50;9.63;;;;;;;;;;784485;176;630421;-63
2022/01/19 14:07:31;;;;;;;24.43;9.63;;;;;;;;;;778447;177;918810;-61
2022/01/19 14:10:02;;;;;;;13.00;7.53;;;;;;;;;;780164;177;918980;-62
2022/01/19 14:12:29;;;;;;;13.27;7.47;;;;;;;;;;790032;176;920575;-62
2022/01/19 14:14:56;;;;;;;11.93;6.43;;;;;;;;;;782860;177;918955;-63
2022/01/19 14:17:23;;;;;;;20.00;10.47;;;;;;;;;;782353;177;882693;-63
2022/01/19 14:19:49;;;;;;;29.37;10.50;;;;;;;;;;778089;180;642588;-63
2022/01/19 14:22:24;;;;;;;24.00;11.80;;;;;;;;;;787717;178;614344;-63
2022/01/19 14:24:54;;;;;;;19.37;11.30;;;;;;;;;;783445;177;920956;-63
2022/01/19 14:27:37;;;;;;;23.80;10.87;;;;;;;;;;780661;176;912472;-64
2022/01/19 14:30:05;;;;;;;22.53;10.87;;;;;;;;;;768204;179;935383;-62
2022/01/19 14:32:42;;;;;;;19.87;8.30;;;;;;;;;;778802;177;920297;-63
2022/01/19 14:35:14;;;;;;;21.10;10.60;;;;;;;;;;781992;177;919213;-63
2022/01/19 14:37:40;;;;;;;20.30;11.70;;;;;;;;;;771814;180;912006;-63
2022/01/19 14:40:06;;;;;;;21.07;11.40;;;;;;;;;;767793;180;913741;-64
2022/01/19 14:42:34;;;;;;;33.60;13.00;;;;;;;;;;781008;177;1015713;-64
2022/01/19 14:45:04;;;;;;;16.40;9.53;;;;;;;;;;789786;176;915446;-63
2022/01/19 14:47:36;;;;;;;27.63;11.97;;;;;;;;;;787671;176;912872;-63
2022/01/19 14:49:56;;;;;;;23.73;12.03;;;;;;;;;;780446;176;916122;-63
2022/01/19 14:52:21;;;;;;;20.87;10.60;;;;;;;;;;777686;176;914548;-63
2022/01/19 14:54:48;;;;;;;22.90;11.80;;;;;;;;;;787151;176;918754;-63
2022/01/19 14:57:13;;;;;;;22.80;13.80;;;;;;;;;;781329;178;919900;-63
2022/01/19 14:59:40;;;;;;;39.67;13.07;;;;;;;;;;783736;176;919977;-64
2022/01/19 15:02:05;;;;;;;25.90;16.40;;;;;;;;;;784532;176;919280;-63
2022/01/19 15:04:31;;;;;;;29.10;15.33;;;;;;;;;;784235;176;919613;-62
2022/01/19 15:07:00;;;;;;;33.37;15.90;;;;;;;;;;789425;176;921818;-62
2022/01/19 15:09:22;;;;;;;28.27;14.37;;;;;;;;;;768755;180;1020716;-64
2022/01/19 15:11:49;;;;;;;27.67;15.17;;;;;;;;;;783311;176;919426;-63
2022/01/19 15:14:15;;;;;;;39.38;16.98;;;;;;;;;;781403;176;919732;-64
2022/01/19 15:16:40;;;;;;;37.87;16.43;;;;;;;;;;784467;178;918286;-64
2022/01/19 15:19:06;;;;;;;22.80;14.27;;;;;;;;;;784049;177;871802;-63
2022/01/19 15:21:32;;;;;;;47.90;22.27;;;;;;;;;;779271;177;919411;-62
2022/01/19 15:23:59;;;;;;;55.93;23.60;;;;;;;;;;777841;177;1019088;-62